Shark River Manor, New Jersey
Current Conditions -  °F | °C
As of 11:35 AM on Friday 21 Nov 2014 (Local Time) from KBLM Reporting Station
Clear Clear  
Wind Chill: 22°   Ceiling: Unl
Heat Index: 34°   Visibility: 10mi
Dew Point:   Wind: 22mph
Humidity: 32%   Direction: 290°WNW
Pressure: 30.3"   Gusts: 26mph
Location:  40.1681°N, 74.0774°W
Report Text: KBLM 211635Z AUTO 29019G23KT 10SM CLR 01/M14 A3030 RMK AO1
Loading
Personal Weather Stations






























Interactive Weather Map New forecast layout! Learn more

10-Day Weather Forecast

Advertisements
Track Severe Weather on mobile